Time;durP1;ratioP1;P1;durP2;ratioP2;P2;SDS_P1;SDS_P2;PMS_P1;PMS_P2;Temp;Humidity;BMP_temperature;BMP_pressure;BME280_temperature;BME280_humidity;BME280_pressure;Samples;Min_cycle;Max_cycle;Signal;HPM_P1;HPM_P2
2022/12/19 00:00:18;;;;;;;51.13;22.85;;;2.00;99.90;;;;;;5096285;28;20047;-71
2022/12/19 00:02:44;;;;;;;47.92;21.85;;;2.00;99.90;;;;;;5096081;28;20047;-71
2022/12/19 00:05:10;;;;;;;44.30;20.42;;;2.00;99.90;;;;;;5096295;28;20054;-71
2022/12/19 00:07:35;;;;;;;45.47;20.85;;;2.00;99.90;;;;;;5095378;28;20043;-72
2022/12/19 00:10:01;;;;;;;48.78;20.95;;;2.00;99.90;;;;;;5096307;28;20417;-71
2022/12/19 00:12:27;;;;;;;54.78;23.52;;;2.00;99.90;;;;;;5095990;28;20047;-71
2022/12/19 00:14:52;;;;;;;49.45;21.15;;;2.00;99.90;;;;;;5094969;28;20044;-71
2022/12/19 00:17:18;;;;;;;54.05;22.50;;;2.00;99.90;;;;;;5095087;28;20036;-71
2022/12/19 00:19:44;;;;;;;49.75;20.95;;;2.10;99.90;;;;;;5095846;28;20108;-71
2022/12/19 00:22:09;;;;;;;53.92;21.23;;;2.00;99.90;;;;;;5094125;28;20121;-71
2022/12/19 00:24:35;;;;;;;45.92;20.98;;;2.10;99.90;;;;;;5094902;28;20044;-71
2022/12/19 00:27:01;;;;;;;49.10;22.17;;;2.20;99.90;;;;;;5096727;28;20036;-71
2022/12/19 00:29:26;;;;;;;48.85;21.63;;;2.20;99.90;;;;;;5099730;28;20044;-71
2022/12/19 00:31:52;;;;;;;49.40;23.45;;;2.30;99.90;;;;;;5099677;28;20044;-71
2022/12/19 00:34:18;;;;;;;51.05;23.23;;;2.20;99.90;;;;;;5099509;28;20040;-71
2022/12/19 00:36:43;;;;;;;47.65;22.02;;;2.20;99.90;;;;;;5098404;28;20092;-71
2022/12/19 00:39:10;;;;;;;44.85;21.70;;;2.20;99.90;;;;;;5098340;28;20037;-71
2022/12/19 00:41:38;;;;;;;52.90;22.20;;;2.30;99.90;;;;;;5099645;28;20115;-71
2022/12/19 00:44:06;;;;;;;46.63;19.85;;;2.30;99.90;;;;;;5099367;28;20043;-71
2022/12/19 00:46:33;;;;;;;44.67;20.10;;;2.30;99.90;;;;;;5099453;28;20028;-71
2022/12/19 00:49:00;;;;;;;49.20;22.25;;;2.30;99.90;;;;;;5099177;28;20036;-71
2022/12/19 00:51:28;;;;;;;47.88;21.42;;;2.30;99.90;;;;;;5097956;28;20071;-71
2022/12/19 00:53:56;;;;;;;52.85;23.83;;;2.30;99.90;;;;;;5099412;28;20076;-71
2022/12/19 00:56:25;;;;;;;44.58;20.45;;;2.30;99.90;;;;;;5098974;28;20446;-71
2022/12/19 00:58:52;;;;;;;46.80;21.67;;;2.40;99.90;;;;;;5098005;28;20051;-71
2022/12/19 01:01:24;;;;;;;48.85;21.60;;;2.30;99.90;;;;;;5098986;28;20391;-71
2022/12/19 01:03:50;;;;;;;47.53;21.00;;;2.40;99.90;;;;;;5098149;28;20471;-71
2022/12/19 01:06:16;;;;;;;49.20;21.92;;;2.30;99.90;;;;;;5098767;28;20081;-71
2022/12/19 01:08:42;;;;;;;51.20;20.75;;;2.40;99.90;;;;;;5097921;28;20040;-71
2022/12/19 01:11:08;;;;;;;50.67;22.20;;;2.40;99.90;;;;;;5097871;28;20110;-71
2022/12/19 01:13:35;;;;;;;48.90;21.75;;;2.40;99.90;;;;;;5081013;28;20040;-71
2022/12/19 01:16:07;;;;;;;48.38;21.50;;;2.50;99.90;;;;;;5098884;28;20071;-71
2022/12/19 01:18:32;;;;;;;46.13;21.90;;;2.50;99.90;;;;;;5097493;28;20055;-72
2022/12/19 01:21:02;;;;;;;44.13;19.17;;;2.40;99.90;;;;;;5096913;28;20040;-71
2022/12/19 01:23:28;;;;;;;41.97;20.70;;;2.40;99.90;;;;;;5098764;28;20046;-71
2022/12/19 01:25:54;;;;;;;41.63;19.27;;;2.50;99.90;;;;;;5098643;28;20036;-71
2022/12/19 01:28:20;;;;;;;45.05;19.65;;;2.60;99.90;;;;;;5098552;28;20035;-71
2022/12/19 01:30:46;;;;;;;48.90;22.52;;;2.50;99.90;;;;;;5098549;28;20039;-71
2022/12/19 01:33:13;;;;;;;48.67;22.10;;;2.60;99.90;;;;;;5098587;28;20036;-71
2022/12/19 01:35:40;;;;;;;57.20;24.05;;;2.60;99.90;;;;;;5098294;28;20417;-71
2022/12/19 01:38:06;;;;;;;49.58;21.50;;;2.60;99.90;;;;;;5098549;28;20043;-71
2022/12/19 01:40:32;;;;;;;45.67;21.98;;;2.60;99.90;;;;;;5097060;28;20040;-71
2022/12/19 01:42:58;;;;;;;51.28;23.35;;;2.60;99.90;;;;;;5098106;28;20076;-71
2022/12/19 01:45:34;;;;;;;48.13;22.20;;;2.70;99.90;;;;;;5098029;28;20036;-70
2022/12/19 01:48:18;;;;;;;51.50;24.10;;;2.70;99.90;;;;;;5097136;28;20092;-71
2022/12/19 01:50:57;;;;;;;48.33;22.60;;;2.70;99.90;;;;;;5097904;28;20048;-70
2022/12/19 01:53:26;;;;;;;54.63;23.95;;;2.60;99.90;;;;;;5097233;28;20397;-71
2022/12/19 01:55:53;;;;;;;48.47;23.27;;;2.60;99.90;;;;;;5098010;28;20062;-70
2022/12/19 01:58:19;;;;;;;49.78;21.52;;;2.60;99.90;;;;;;5098043;28;20080;-71
2022/12/19 02:00:45;;;;;;;44.85;22.17;;;2.70;99.90;;;;;;5097689;28;20157;-71
2022/12/19 02:03:22;;;;;;;42.38;20.10;;;2.70;99.90;;;;;;5098138;28;20040;-71
2022/12/19 02:05:48;;;;;;;47.55;21.17;;;2.90;99.90;;;;;;5096853;28;20075;-70
2022/12/19 02:08:15;;;;;;;49.15;24.15;;;2.90;99.90;;;;;;5097878;28;20115;-71
2022/12/19 02:10:41;;;;;;;48.70;21.17;;;3.00;99.90;;;;;;5097575;28;20068;-70
2022/12/19 02:13:07;;;;;;;47.22;23.50;;;2.80;99.90;;;;;;5096844;28;20149;-71
2022/12/19 02:15:44;;;;;;;48.40;22.90;;;2.90;99.90;;;;;;5096291;28;20040;-71
2022/12/19 02:18:22;;;;;;;48.75;22.38;;;2.90;99.90;;;;;;5096793;28;20086;-71
2022/12/19 02:21:19;;;;;;;45.80;22.58;;;2.90;99.90;;;;;;5096795;28;20383;-71
2022/12/19 02:23:53;;;;;;;;;;;2.90;99.90;;;;;;5097948;28;20131;-70
2022/12/19 02:26:37;;;;;;;49.58;21.95;;;2.90;99.90;;;;;;5097508;28;19973;-70
2022/12/19 02:29:23;;;;;;;52.28;23.95;;;2.90;99.90;;;;;;5096550;28;20119;-70
2022/12/19 02:31:56;;;;;;;50.90;23.05;;;2.80;99.90;;;;;;5097382;28;20125;-71
2022/12/19 02:34:28;;;;;;;54.58;25.88;;;2.80;99.90;;;;;;5097215;28;20055;-71
2022/12/19 02:37:04;;;;;;;51.05;23.75;;;2.90;99.90;;;;;;5097186;28;20114;-70
2022/12/19 02:39:53;;;;;;;58.15;26.90;;;2.80;99.90;;;;;;5097222;28;20040;-70
2022/12/19 02:42:28;;;;;;;57.00;25.60;;;2.80;99.90;;;;;;5097367;28;20052;-70
2022/12/19 02:44:55;;;;;;;59.65;26.70;;;2.80;99.90;;;;;;5097202;28;20035;-70
2022/12/19 02:47:21;;;;;;;58.90;27.15;;;2.90;99.90;;;;;;5097177;28;20040;-70
2022/12/19 02:49:47;;;;;;;58.70;27.83;;;2.90;99.90;;;;;;5095964;28;20038;-70
2022/12/19 02:52:18;;;;;;;58.90;27.70;;;2.90;99.90;;;;;;5095480;28;20040;-70
2022/12/19 02:54:46;;;;;;;67.90;29.52;;;2.80;99.90;;;;;;5095771;28;20047;-70
2022/12/19 02:57:48;;;;;;;70.10;29.63;;;2.90;99.90;;;;;;5096791;28;20098;-70
2022/12/19 03:00:19;;;;;;;70.75;31.13;;;3.00;99.90;;;;;;5095494;28;20123;-70
2022/12/19 03:03:12;;;;;;;66.25;30.88;;;2.90;99.90;;;;;;5096535;28;20114;-70
2022/12/19 03:05:41;;;;;;;66.55;29.30;;;2.90;99.90;;;;;;5095676;28;20048;-71
2022/12/19 03:08:19;;;;;;;66.72;28.70;;;2.90;99.90;;;;;;5096441;28;20340;-70
2022/12/19 03:10:54;;;;;;;62.20;28.65;;;2.80;99.90;;;;;;5096359;28;20040;-70
2022/12/19 03:13:19;;;;;;;81.90;36.03;;;2.90;99.90;;;;;;5096196;28;20122;-71
2022/12/19 03:15:45;;;;;;;63.08;28.33;;;3.00;99.90;;;;;;5096314;28;20156;-70
2022/12/19 03:18:12;;;;;;;63.70;28.52;;;2.90;99.90;;;;;;5096779;28;20060;-70
2022/12/19 03:21:03;;;;;;;72.00;31.33;;;2.90;99.90;;;;;;5094614;28;20054;-70
2022/12/19 03:23:30;;;;;;;70.75;30.42;;;2.90;99.90;;;;;;5078568;28;20071;-70
2022/12/19 03:26:01;;;;;;;62.28;29.20;;;2.90;99.90;;;;;;5096061;28;20032;-70
2022/12/19 03:28:50;;;;;;;58.75;28.13;;;2.90;99.90;;;;;;5096273;28;20201;-70
2022/12/19 03:31:20;;;;;;;66.50;29.08;;;3.00;99.90;;;;;;5096232;28;20379;-70
2022/12/19 03:33:49;;;;;;;72.03;31.52;;;3.00;99.90;;;;;;5096058;28;20036;-70
2022/12/19 03:36:19;;;;;;;67.72;30.42;;;3.00;99.90;;;;;;5096256;28;20145;-70
2022/12/19 03:38:47;;;;;;;75.53;34.22;;;2.90;99.90;;;;;;5096060;28;20036;-70
2022/12/19 03:41:15;;;;;;;74.40;31.63;;;2.90;99.90;;;;;;5095060;28;20039;-70
2022/12/19 03:43:44;;;;;;;71.15;32.00;;;3.00;99.90;;;;;;5095916;28;20508;-70
2022/12/19 03:46:24;;;;;;;78.28;32.60;;;3.00;99.90;;;;;;5094873;28;20048;-70
2022/12/19 03:48:52;;;;;;;88.80;34.83;;;3.00;99.90;;;;;;5096160;28;20479;-70
2022/12/19 03:51:28;;;;;;;86.78;33.40;;;3.10;99.90;;;;;;5094333;28;20417;-70
2022/12/19 03:54:19;;;;;;;85.35;34.28;;;3.20;99.90;;;;;;5095890;28;20038;-70
2022/12/19 03:57:09;;;;;;;80.20;33.45;;;3.20;99.90;;;;;;5095244;28;20063;-70
2022/12/19 03:59:46;;;;;;;75.70;33.30;;;3.10;99.90;;;;;;5095665;28;20079;-70
2022/12/19 04:02:15;;;;;;;79.82;34.60;;;3.10;99.90;;;;;;5098354;28;20040;-70
2022/12/19 04:04:45;;;;;;;91.30;34.50;;;3.20;99.90;;;;;;5099657;28;20032;-70
2022/12/19 04:07:13;;;;;;;84.38;35.40;;;3.20;99.90;;;;;;5098784;28;20492;-70
2022/12/19 04:09:41;;;;;;;81.80;35.45;;;3.30;99.90;;;;;;5099687;28;20115;-71
2022/12/19 04:12:17;;;;;;;83.25;34.42;;;3.30;99.90;;;;;;5098583;28;20036;-70
2022/12/19 04:14:43;;;;;;;89.93;36.83;;;3.40;99.90;;;;;;5099795;28;20032;-69
2022/12/19 04:17:38;;;;;;;104.03;38.75;;;3.40;99.90;;;;;;5099478;28;20044;-70
2022/12/19 04:20:05;;;;;;;99.57;37.28;;;3.50;99.90;;;;;;5099439;28;20046;-70
2022/12/19 04:22:40;;;;;;;88.20;37.65;;;3.40;99.90;;;;;;5099037;28;20081;-70
2022/12/19 04:25:14;;;;;;;99.85;42.03;;;3.40;99.90;;;;;;5081575;28;20044;-70
2022/12/19 04:27:45;;;;;;;87.00;36.08;;;3.40;99.90;;;;;;5099332;28;20444;-69
2022/12/19 04:30:16;;;;;;;90.18;37.60;;;3.30;99.90;;;;;;5099556;28;20374;-70
2022/12/19 04:32:42;;;;;;;95.90;37.92;;;3.40;99.90;;;;;;5099142;28;20081;-70
2022/12/19 04:35:08;;;;;;;86.38;37.47;;;3.40;99.90;;;;;;5099450;28;20036;-70
2022/12/19 04:37:34;;;;;;;77.47;34.88;;;3.50;99.90;;;;;;5099025;28;20437;-70
2022/12/19 04:40:00;;;;;;;93.38;37.72;;;3.60;99.90;;;;;;5099216;28;20040;-69
2022/12/19 04:42:25;;;;;;;92.05;37.67;;;3.60;99.90;;;;;;5099160;28;20027;-69
2022/12/19 04:44:51;;;;;;;77.47;34.55;;;3.60;99.90;;;;;;5099211;28;20040;-70
2022/12/19 04:47:17;;;;;;;82.22;35.85;;;3.60;99.90;;;;;;5097761;28;20044;-70
2022/12/19 04:49:42;;;;;;;87.88;39.95;;;3.70;99.90;;;;;;5099180;28;20047;-69
2022/12/19 04:52:08;;;;;;;90.90;39.00;;;3.70;99.90;;;;;;5080896;28;20487;-69
2022/12/19 04:54:34;;;;;;;93.47;37.75;;;3.70;99.90;;;;;;5097724;28;20040;-69
2022/12/19 04:56:59;;;;;;;88.22;39.00;;;3.70;99.90;;;;;;5097814;28;20044;-69
2022/12/19 04:59:25;;;;;;;104.55;40.05;;;3.70;99.90;;;;;;5098811;28;20035;-70
2022/12/19 05:01:51;;;;;;;93.22;38.05;;;3.70;99.90;;;;;;5097560;28;20093;-69
2022/12/19 05:04:16;;;;;;;98.78;39.83;;;3.80;99.90;;;;;;5092683;28;20044;-70
2022/12/19 05:06:42;;;;;;;86.28;36.92;;;3.80;99.90;;;;;;5076512;28;20044;-70
2022/12/19 05:09:10;;;;;;;99.15;39.00;;;3.80;99.90;;;;;;5077745;28;20032;-69
2022/12/19 05:11:36;;;;;;;90.32;38.45;;;3.80;99.90;;;;;;5078510;28;20108;-69
2022/12/19 05:14:02;;;;;;;85.85;38.60;;;3.80;99.90;;;;;;5077909;28;20174;-69
2022/12/19 05:16:27;;;;;;;101.60;40.65;;;3.70;99.90;;;;;;5078098;28;20357;-69
2022/12/19 05:18:53;;;;;;;93.65;37.45;;;3.80;99.90;;;;;;5078414;28;20079;-69
2022/12/19 05:21:20;;;;;;;87.18;36.60;;;3.80;99.90;;;;;;5059874;28;20090;-69
2022/12/19 05:23:48;;;;;;;97.10;39.00;;;3.70;99.90;;;;;;5078110;28;20036;-69
2022/12/19 05:26:14;;;;;;;99.40;40.20;;;3.80;99.90;;;;;;5078090;28;20036;-70
2022/12/19 05:28:40;;;;;;;95.85;38.80;;;3.80;99.90;;;;;;5060665;28;20036;-70
2022/12/19 05:31:08;;;;;;;97.82;39.05;;;3.80;99.90;;;;;;5077787;28;20032;-70
2022/12/19 05:33:35;;;;;;;82.88;35.53;;;3.80;99.90;;;;;;5077824;28;20115;-70
2022/12/19 05:36:01;;;;;;;89.28;38.28;;;3.90;99.90;;;;;;5077853;28;20101;-70
2022/12/19 05:38:27;;;;;;;93.50;39.20;;;3.90;99.90;;;;;;5077928;28;20378;-70
2022/12/19 05:40:53;;;;;;;107.05;41.35;;;3.80;99.90;;;;;;5077685;28;20360;-69
2022/12/19 05:43:20;;;;;;;82.57;35.65;;;3.90;99.90;;;;;;5077762;28;20032;-69
2022/12/19 05:45:45;;;;;;;88.97;37.63;;;3.90;99.90;;;;;;5076464;28;20329;-70
2022/12/19 05:48:13;;;;;;;92.40;37.55;;;3.90;99.90;;;;;;5077740;28;20112;-70
2022/12/19 05:50:39;;;;;;;96.55;37.38;;;4.00;99.90;;;;;;5077344;28;20036;-70
2022/12/19 05:53:04;;;;;;;100.25;38.35;;;4.10;99.90;;;;;;5077346;28;20123;-69
2022/12/19 05:55:30;;;;;;;89.57;37.72;;;4.20;99.90;;;;;;5076558;28;20071;-70
2022/12/19 05:57:59;;;;;;;82.05;35.47;;;4.10;99.90;;;;;;5076273;28;20408;-69
2022/12/19 06:00:24;;;;;;;106.63;38.45;;;4.10;99.90;;;;;;5077151;28;20072;-70
2022/12/19 06:02:50;;;;;;;100.90;39.17;;;4.20;99.90;;;;;;5076204;28;20033;-69
2022/12/19 06:05:16;;;;;;;72.32;33.50;;;4.20;99.90;;;;;;5077150;28;20037;-69
2022/12/19 06:07:41;;;;;;;66.35;32.20;;;4.30;99.90;;;;;;5077343;28;20032;-69
2022/12/19 06:10:07;;;;;;;81.05;35.63;;;4.30;99.90;;;;;;5077128;28;20032;-69
2022/12/19 06:12:33;;;;;;;72.00;33.13;;;4.30;99.90;;;;;;5076058;28;20029;-69
2022/12/19 06:14:58;;;;;;;72.78;33.03;;;4.40;99.90;;;;;;5075899;28;20045;-69
2022/12/19 06:17:24;;;;;;;57.88;26.30;;;4.40;99.90;;;;;;5077156;28;20041;-69
2022/12/19 06:19:50;;;;;;;60.65;27.25;;;4.40;99.90;;;;;;5077230;28;20047;-69
2022/12/19 06:22:15;;;;;;;66.20;32.40;;;4.40;99.90;;;;;;5076381;28;20047;-69
2022/12/19 06:24:41;;;;;;;61.03;28.77;;;4.40;99.90;;;;;;5076514;28;20032;-69
2022/12/19 06:27:08;;;;;;;61.38;29.48;;;4.50;99.90;;;;;;5076865;28;20041;-69
2022/12/19 06:29:33;;;;;;;71.60;32.22;;;4.40;99.90;;;;;;5075755;28;20109;-69
2022/12/19 06:31:59;;;;;;;63.45;28.75;;;4.50;99.90;;;;;;5076832;28;20032;-69
2022/12/19 06:34:24;;;;;;;61.90;30.30;;;4.50;99.90;;;;;;5077026;28;20075;-69
2022/12/19 06:36:50;;;;;;;48.20;25.08;;;4.50;99.90;;;;;;5076620;28;20046;-69
2022/12/19 06:39:16;;;;;;;70.05;31.58;;;4.60;99.90;;;;;;5075503;28;20123;-69
2022/12/19 06:44:26;;;;;;;63.58;29.20;;;4.70;99.90;;;;;;5109489;28;20051;-68
2022/12/19 06:46:52;;;;;;;63.13;27.35;;;4.70;99.90;;;;;;5092400;28;20036;-68
2022/12/19 06:49:18;;;;;;;60.75;27.23;;;4.70;99.90;;;;;;5076469;28;20421;-68
2022/12/19 06:51:44;;;;;;;53.47;26.83;;;4.90;99.90;;;;;;5076202;28;20039;-68
2022/12/19 06:54:11;;;;;;;52.60;25.20;;;4.90;99.90;;;;;;5076298;28;20036;-68
2022/12/19 06:56:38;;;;;;;53.05;26.67;;;5.00;99.90;;;;;;5090467;28;20088;-69
2022/12/19 06:59:05;;;;;;;54.10;25.58;;;5.00;99.90;;;;;;5096138;28;20111;-68
2022/12/19 07:02:01;;;;;;;56.42;25.60;;;5.10;99.90;;;;;;5095983;28;20044;-70
2022/12/19 07:04:40;;;;;;;45.47;23.05;;;5.10;99.90;;;;;;5091134;28;20047;-68
2022/12/19 07:07:06;;;;;;;43.65;22.45;;;5.10;99.90;;;;;;5094751;28;20034;-69
2022/12/19 07:09:33;;;;;;;51.35;23.08;;;5.20;99.90;;;;;;5095868;28;20040;-70
2022/12/19 07:12:00;;;;;;;46.85;23.85;;;5.20;99.90;;;;;;5095895;28;20439;-68
2022/12/19 07:14:25;;;;;;;52.22;23.50;;;5.20;99.90;;;;;;5096303;28;20111;-69
2022/12/19 07:16:52;;;;;;;51.47;24.77;;;5.10;99.90;;;;;;5096913;28;20115;-69
2022/12/19 07:19:20;;;;;;;75.45;27.13;;;5.20;99.90;;;;;;5096520;28;20044;-68
2022/12/19 07:21:46;;;;;;;47.00;23.27;;;5.20;99.90;;;;;;5095851;28;20329;-68
2022/12/19 07:24:13;;;;;;;39.15;20.40;;;5.30;99.90;;;;;;5096691;28;20105;-69
2022/12/19 07:26:41;;;;;;;53.63;24.40;;;5.30;99.90;;;;;;5096821;28;20032;-69
2022/12/19 07:29:08;;;;;;;38.60;21.42;;;5.40;99.90;;;;;;5095454;28;20078;-69
2022/12/19 07:31:34;;;;;;;38.95;21.90;;;5.30;99.90;;;;;;5095333;28;20051;-70
2022/12/19 07:33:59;;;;;;;40.22;21.67;;;5.40;99.90;;;;;;5095665;28;20028;-70
2022/12/19 07:36:25;;;;;;;42.17;22.52;;;5.40;99.90;;;;;;5098367;28;20028;-71
2022/12/19 07:38:50;;;;;;;53.95;25.30;;;5.40;99.90;;;;;;5100505;28;20028;-69
2022/12/19 07:41:16;;;;;;;38.25;20.75;;;5.40;99.90;;;;;;5099901;28;20031;-69
2022/12/19 07:43:42;;;;;;;46.70;22.60;;;5.50;99.90;;;;;;5100049;28;20032;-69
2022/12/19 07:46:11;;;;;;;43.92;21.58;;;5.40;99.90;;;;;;5100407;28;20413;-70
2022/12/19 07:48:36;;;;;;;36.50;18.33;;;5.50;99.90;;;;;;5082691;28;20046;-70
2022/12/19 07:51:03;;;;;;;40.85;21.20;;;5.50;99.90;;;;;;5099041;28;20413;-69
2022/12/19 07:53:29;;;;;;;34.00;19.33;;;5.50;99.90;;;;;;5100614;28;20072;-69
2022/12/19 07:55:54;;;;;;;49.13;23.52;;;5.50;99.90;;;;;;5100610;28;20392;-69
2022/12/19 07:58:20;;;;;;;41.00;21.63;;;5.60;99.90;;;;;;5099517;28;20047;-69
2022/12/19 08:00:56;;;;;;;42.45;21.38;;;5.60;99.90;;;;;;5099143;28;20036;-69
2022/12/19 08:03:23;;;;;;;39.08;21.08;;;5.60;99.90;;;;;;5099308;28;20031;-69
2022/12/19 08:05:49;;;;;;;40.70;21.48;;;5.60;99.90;;;;;;5082185;28;20093;-69
2022/12/19 08:08:15;;;;;;;39.53;20.40;;;5.60;99.90;;;;;;5099198;28;20035;-67
2022/12/19 08:10:41;;;;;;;35.67;18.25;;;5.60;99.90;;;;;;5099185;28;20321;-69
2022/12/19 08:13:06;;;;;;;38.42;19.42;;;5.60;99.90;;;;;;5100110;28;20032;-75
2022/12/19 08:15:32;;;;;;;36.85;19.23;;;5.70;99.90;;;;;;5099289;28;20405;-67
2022/12/19 08:17:58;;;;;;;39.67;21.02;;;5.70;99.90;;;;;;5100218;28;20416;-69
2022/12/19 08:20:23;;;;;;;45.30;20.92;;;5.60;99.90;;;;;;5099835;28;20036;-67
2022/12/19 08:22:50;;;;;;;36.60;19.85;;;5.70;99.90;;;;;;5099271;28;20055;-67
2022/12/19 08:25:16;;;;;;;40.60;19.88;;;5.70;99.90;;;;;;5098750;28;20032;-67
2022/12/19 08:27:41;;;;;;;57.83;22.48;;;5.80;99.90;;;;;;5081706;28;20100;-67
2022/12/19 08:30:08;;;;;;;38.20;20.52;;;5.80;99.90;;;;;;5099077;28;20075;-67
2022/12/19 08:32:33;;;;;;;37.22;20.85;;;5.80;99.90;;;;;;5133200;27;20043;-67
2022/12/19 08:34:59;;;;;;;34.38;18.33;;;5.80;99.90;;;;;;5099901;28;20374;-68
2022/12/19 08:37:25;;;;;;;46.05;21.60;;;5.80;99.90;;;;;;5099723;28;20036;-67
2022/12/19 08:39:50;;;;;;;32.58;18.98;;;6.00;99.90;;;;;;5099601;28;20032;-67
2022/12/19 08:42:16;;;;;;;29.17;17.88;;;6.00;99.90;;;;;;5099369;28;20039;-67
2022/12/19 08:44:42;;;;;;;35.67;19.95;;;6.00;99.90;;;;;;5099757;28;20031;-67
2022/12/19 08:47:08;;;;;;;33.25;19.10;;;6.00;99.90;;;;;;5098878;28;20412;-67
2022/12/19 08:49:34;;;;;;;41.50;20.52;;;6.10;99.90;;;;;;5089613;28;20040;-68
2022/12/19 08:52:00;;;;;;;28.33;17.02;;;6.10;99.90;;;;;;5085380;28;20119;-67
2022/12/19 08:54:26;;;;;;;37.38;19.33;;;6.20;99.90;;;;;;5078897;28;20033;-67
2022/12/19 08:56:51;;;;;;;30.42;18.38;;;6.20;99.90;;;;;;5096888;28;20043;-67
2022/12/19 08:59:17;;;;;;;36.13;19.55;;;6.30;99.90;;;;;;5098818;28;20055;-67
2022/12/19 09:01:43;;;;;;;36.63;19.90;;;6.20;99.90;;;;;;5098886;28;20028;-67
2022/12/19 09:04:09;;;;;;;30.70;17.75;;;6.20;99.90;;;;;;5096938;28;20498;-71
2022/12/19 09:06:35;;;;;;;42.15;22.45;;;6.20;99.90;;;;;;5086267;28;20036;-67
2022/12/19 09:09:05;;;;;;;33.15;18.85;;;6.30;99.90;;;;;;5078425;28;20433;-68
2022/12/19 09:11:30;;;;;;;36.88;19.70;;;6.40;99.90;;;;;;5078035;28;20052;-80
2022/12/19 09:13:56;;;;;;;40.65;20.90;;;6.40;99.90;;;;;;5098093;28;20044;-67
2022/12/19 09:16:25;;;;;;;50.60;23.50;;;6.50;99.90;;;;;;5090868;28;20044;-68
2022/12/19 09:18:53;;;;;;;45.25;22.63;;;6.50;99.90;;;;;;5088486;28;20375;-67
2022/12/19 09:21:21;;;;;;;47.17;21.70;;;6.50;99.90;;;;;;5077182;28;20080;-67
2022/12/19 09:23:52;;;;;;;34.35;19.08;;;6.60;99.90;;;;;;5091416;28;20337;-67
2022/12/19 09:26:20;;;;;;;56.03;23.77;;;6.60;99.90;;;;;;5097503;28;20044;-68
2022/12/19 09:28:47;;;;;;;41.95;22.75;;;6.60;99.90;;;;;;5097426;28;20119;-67
2022/12/19 09:31:15;;;;;;;45.65;23.55;;;6.70;99.90;;;;;;5097278;28;20048;-67
2022/12/19 09:33:41;;;;;;;44.25;22.70;;;6.80;99.90;;;;;;5098114;28;20044;-69
2022/12/19 09:36:14;;;;;;;44.88;22.42;;;6.80;99.90;;;;;;5082917;28;20051;-67
2022/12/19 09:38:40;;;;;;;38.75;22.02;;;6.80;99.90;;;;;;5089083;28;20051;-67
2022/12/19 09:41:12;;;;;;;38.28;21.83;;;6.80;99.90;;;;;;5077112;28;20048;-67
2022/12/19 09:43:44;;;;;;;43.53;23.83;;;6.80;99.90;;;;;;5087674;28;20461;-68
2022/12/19 09:46:26;;;;;;;58.45;26.77;;;6.90;99.90;;;;;;5077724;28;20041;-66
2022/12/19 09:48:56;;;;;;;48.85;23.77;;;6.90;99.90;;;;;;5077807;28;20032;-67
2022/12/19 09:51:45;;;;;;;39.72;23.10;;;6.90;99.90;;;;;;5077455;28;20028;-67
2022/12/19 09:54:25;;;;;;;41.58;23.92;;;7.00;99.90;;;;;;5077895;28;20125;-67
2022/12/19 09:56:57;;;;;;;36.88;23.63;;;7.00;99.90;;;;;;5077488;28;20044;-67
2022/12/19 09:59:31;;;;;;;42.28;24.40;;;7.20;99.90;;;;;;5076508;28;20105;-67
2022/12/19 10:02:18;;;;;;;39.47;23.85;;;7.10;99.90;;;;;;5078362;28;20097;-67
2022/12/19 10:04:50;;;;;;;49.58;25.65;;;7.20;99.90;;;;;;5076683;28;20052;-67
2022/12/19 10:07:18;;;;;;;40.38;23.52;;;7.20;99.90;;;;;;5077668;28;20036;-72
2022/12/19 10:09:45;;;;;;;52.88;26.35;;;7.30;99.90;;;;;;5077207;28;20044;-67
2022/12/19 10:12:31;;;;;;;54.88;27.50;;;7.30;99.90;;;;;;5077435;28;20036;-71
2022/12/19 10:15:15;;;;;;;;;;;7.40;99.90;;;;;;5077658;28;20048;-67
2022/12/19 10:18:06;;;;;;;43.13;23.75;;;7.40;99.90;;;;;;5076204;28;20270;-68
2022/12/19 10:20:40;;;;;;;44.85;23.98;;;7.50;99.90;;;;;;5076859;28;20049;-70
2022/12/19 10:23:27;;;;;;;52.13;25.45;;;7.50;99.90;;;;;;5076897;28;20132;-68
2022/12/19 10:26:09;;;;;;;50.15;26.55;;;7.60;99.90;;;;;;5077038;28;20036;-68
2022/12/19 10:28:54;;;;;;;40.72;23.33;;;7.60;99.90;;;;;;5076961;28;20037;-67
2022/12/19 10:31:23;;;;;;;48.13;25.73;;;7.50;99.90;;;;;;5082855;28;20050;-68
2022/12/19 10:34:10;;;;;;;58.85;27.08;;;7.60;99.90;;;;;;5096745;28;20040;-68
2022/12/19 10:36:43;;;;;;;45.35;24.90;;;7.60;99.90;;;;;;5096622;28;20145;-67
2022/12/19 10:39:30;;;;;;;39.85;24.08;;;7.60;99.90;;;;;;5095222;28;20436;-70
2022/12/19 10:42:09;;;;;;;49.78;26.25;;;7.70;99.90;;;;;;5096426;28;20036;-67
2022/12/19 10:44:38;;;;;;;40.97;23.20;;;7.70;99.90;;;;;;5095871;28;20047;-68
2022/12/19 10:47:04;;;;;;;42.47;24.02;;;7.70;99.90;;;;;;5096686;28;20036;-67
2022/12/19 10:49:30;;;;;;;43.35;24.35;;;7.80;99.90;;;;;;5096810;28;20047;-67
2022/12/19 10:52:04;;;;;;;36.30;22.90;;;7.80;99.90;;;;;;5095322;28;20040;-68
2022/12/19 10:54:36;;;;;;;44.15;24.25;;;7.80;99.90;;;;;;5095826;28;20044;-68
2022/12/19 10:57:21;;;;;;;47.30;25.63;;;7.90;99.90;;;;;;5096963;28;20040;-67
2022/12/19 11:00:05;;;;;;;36.45;22.40;;;8.00;99.90;;;;;;5096840;28;20164;-68
2022/12/19 11:02:37;;;;;;;34.33;22.77;;;8.00;99.90;;;;;;5096777;28;20119;-67
2022/12/19 11:05:05;;;;;;;44.80;25.42;;;8.00;99.90;;;;;;5096881;28;20047;-67
2022/12/19 11:07:31;;;;;;;47.60;24.13;;;8.10;99.90;;;;;;5095896;28;20058;-69
2022/12/19 11:09:57;;;;;;;56.40;27.35;;;8.00;99.90;;;;;;5095564;28;20437;-69
2022/12/19 11:12:25;;;;;;;72.53;28.40;;;8.00;99.90;;;;;;5096928;28;20044;-67
2022/12/19 11:15:14;;;;;;;34.97;23.52;;;8.10;99.90;;;;;;5095583;28;20032;-67
2022/12/19 11:17:40;;;;;;;41.50;24.00;;;8.10;99.90;;;;;;5093744;28;20084;-67
2022/12/19 11:20:12;;;;;;;39.15;23.15;;;8.10;99.90;;;;;;5096565;28;20120;-67
2022/12/19 11:22:44;;;;;;;33.15;21.75;;;8.10;99.90;;;;;;5095970;28;20075;-67
2022/12/19 11:25:19;;;;;;;37.08;23.02;;;8.10;99.90;;;;;;5095689;28;20105;-67
2022/12/19 11:27:49;;;;;;;54.70;25.37;;;8.20;99.90;;;;;;5095625;28;20142;-66
2022/12/19 11:30:15;;;;;;;32.53;22.08;;;8.20;99.90;;;;;;5096341;28;20442;-67
2022/12/19 11:32:43;;;;;;;38.35;24.27;;;8.20;99.90;;;;;;5095594;28;20113;-67
2022/12/19 11:35:24;;;;;;;42.97;24.50;;;8.30;99.90;;;;;;5096528;28;20035;-67
2022/12/19 11:37:53;;;;;;;37.67;23.52;;;8.20;99.90;;;;;;5095623;28;20040;-66
2022/12/19 11:40:24;;;;;;;37.33;24.50;;;8.20;99.90;;;;;;5096222;28;20083;-66
2022/12/19 11:43:14;;;;;;;37.72;23.77;;;8.30;99.90;;;;;;5095636;28;20040;-66
2022/12/19 11:45:55;;;;;;;31.17;22.35;;;8.30;99.90;;;;;;5096517;28;20325;-67
2022/12/19 11:48:45;;;;;;;33.60;21.02;;;8.30;99.90;;;;;;5096160;28;20486;-66
2022/12/19 11:51:47;;;;;;;35.75;24.08;;;8.30;99.90;;;;;;5096052;28;20036;-67
2022/12/19 11:54:15;;;;;;;40.10;24.92;;;8.30;99.90;;;;;;5095872;28;20349;-66
2022/12/19 11:56:41;;;;;;;43.42;24.80;;;8.40;99.90;;;;;;5085512;28;20067;-66
2022/12/19 11:59:18;;;;;;;30.98;21.67;;;8.40;99.90;;;;;;5076422;28;20184;-68
2022/12/19 12:02:04;;;;;;;52.53;26.73;;;8.40;99.90;;;;;;5074247;28;20166;-67
2022/12/19 12:04:57;;;;;;;37.28;22.38;;;8.50;99.90;;;;;;5075387;28;20151;-67
2022/12/19 12:07:28;;;;;;;35.08;23.63;;;8.50;99.90;;;;;;5075874;28;20145;-66
2022/12/19 12:10:14;;;;;;;35.78;21.85;;;8.60;99.90;;;;;;5076073;28;20048;-67
2022/12/19 12:12:51;;;;;;;38.55;24.45;;;8.60;99.90;;;;;;5076196;28;20193;-67
2022/12/19 12:15:23;;;;;;;31.30;22.00;;;8.60;99.90;;;;;;5075888;28;20071;-66
2022/12/19 12:18:10;;;;;;;38.05;22.55;;;8.70;99.90;;;;;;5077810;28;20123;-67
2022/12/19 12:20:54;;;;;;;26.42;20.70;;;8.70;99.90;;;;;;5088464;28;20468;-67
2022/12/19 12:23:27;;;;;;;38.63;24.10;;;8.70;99.90;;;;;;5097808;28;20091;-67
2022/12/19 12:26:12;;;;;;;34.93;22.67;;;8.80;99.90;;;;;;5094200;28;20036;-68
2022/12/19 12:29:16;;;;;;;38.13;24.30;;;8.80;99.90;;;;;;5078828;28;20087;-68
2022/12/19 12:32:09;;;;;;;29.27;21.17;;;8.80;99.90;;;;;;5057450;28;20533;-67
2022/12/19 12:34:43;;;;;;;42.00;24.20;;;8.80;99.90;;;;;;5057507;28;20100;-67
2022/12/19 12:37:12;;;;;;;28.60;21.05;;;8.80;99.90;;;;;;5074781;28;20049;-68
2022/12/19 12:40:03;;;;;;;30.80;21.05;;;8.80;99.90;;;;;;5078465;28;20337;-67
2022/12/19 12:42:46;;;;;;;33.75;21.30;;;8.80;99.90;;;;;;5079421;28;20116;-67
2022/12/19 12:45:36;;;;;;;32.70;22.17;;;8.80;99.90;;;;;;5077067;28;20049;-68
2022/12/19 12:48:04;;;;;;;40.40;25.08;;;8.80;99.90;;;;;;5072343;28;20045;-67
2022/12/19 12:50:32;;;;;;;31.40;20.52;;;8.80;99.90;;;;;;5078924;28;20040;-67
2022/12/19 12:53:01;;;;;;;30.13;21.20;;;8.80;99.90;;;;;;5077751;28;20040;-67
2022/12/19 12:55:31;;;;;;;31.40;21.60;;;8.80;99.90;;;;;;5079142;28;20037;-74
2022/12/19 12:57:57;;;;;;;33.22;23.40;;;8.80;99.90;;;;;;5078841;28;20044;-67